Time;durP1;ratioP1;P1;durP2;ratioP2;P2;SDS_P1;SDS_P2;PMS_P1;PMS_P2;Temp;Humidity;BMP_temperature;BMP_pressure;BME280_temperature;BME280_humidity;BME280_pressure;Samples;Min_cycle;Max_cycle;Signal;HPM_P1;HPM_P2
2022/05/21 00:00:24;;;;;;;8.23;4.97;;;18.00;99.90;;;;;;5115072;27;20861;-59
2022/05/21 00:02:50;;;;;;;6.90;5.00;;;18.00;99.90;;;;;;5107950;28;20218;-58
2022/05/21 00:05:17;;;;;;;8.27;5.27;;;18.00;99.90;;;;;;5114332;27;20456;-57
2022/05/21 00:07:43;;;;;;;7.73;5.70;;;17.90;99.90;;;;;;5107311;27;20431;-58
2022/05/21 00:10:12;;;;;;;8.83;6.03;;;17.90;99.90;;;;;;5107172;28;20481;-59
2022/05/21 00:12:38;;;;;;;7.67;5.20;;;17.90;99.90;;;;;;5108505;27;20565;-58
2022/05/21 00:15:04;;;;;;;9.67;6.63;;;17.90;99.90;;;;;;5104091;27;20407;-58
2022/05/21 00:17:30;;;;;;;10.50;6.07;;;17.90;99.90;;;;;;5085393;28;20442;-59
2022/05/21 00:19:55;;;;;;;8.43;6.20;;;17.80;99.90;;;;;;5111635;27;20435;-56
2022/05/21 00:22:21;;;;;;;8.20;6.30;;;17.80;99.90;;;;;;5110229;28;20188;-60
2022/05/21 00:24:47;;;;;;;11.10;7.30;;;17.80;99.90;;;;;;5109992;28;20200;-58
2022/05/21 00:27:12;;;;;;;11.30;6.93;;;17.70;99.90;;;;;;5108866;28;20591;-58
2022/05/21 00:29:38;;;;;;;10.90;6.53;;;17.80;99.90;;;;;;5108637;28;20215;-58
2022/05/21 00:32:04;;;;;;;12.27;7.20;;;17.70;99.90;;;;;;5110932;27;20177;-57
2022/05/21 00:34:30;;;;;;;12.07;6.67;;;17.70;99.90;;;;;;5109269;27;20280;-57
2022/05/21 00:36:56;;;;;;;15.33;7.07;;;17.70;99.90;;;;;;5109428;28;20427;-58
2022/05/21 00:39:22;;;;;;;9.87;6.30;;;17.70;99.90;;;;;;5108899;28;20533;-58
2022/05/21 00:41:48;;;;;;;9.07;7.00;;;17.60;99.90;;;;;;5115766;27;20779;-58
2022/05/21 00:44:14;;;;;;;9.97;6.23;;;17.60;99.90;;;;;;5109625;28;20787;-58
2022/05/21 00:46:42;;;;;;;10.50;6.70;;;17.60;99.90;;;;;;5112820;27;20461;-58
2022/05/21 00:49:20;;;;;;;9.07;5.63;;;17.50;99.90;;;;;;5090903;28;20310;-58
2022/05/21 00:51:46;;;;;;;9.40;5.83;;;17.50;99.90;;;;;;5110561;27;21110;-59
2022/05/21 00:54:13;;;;;;;11.30;7.23;;;17.40;99.90;;;;;;5104713;28;20449;-61
2022/05/21 00:56:44;;;;;;;9.33;6.00;;;17.40;99.90;;;;;;5109667;28;20819;-58
2022/05/21 01:01:59;;;;;;;7.10;5.90;;;17.40;99.90;;;;;;5108838;27;20421;-59
2022/05/21 01:04:25;;;;;;;8.70;6.00;;;17.30;99.90;;;;;;5109599;27;20550;-59
2022/05/21 01:06:52;;;;;;;9.97;6.40;;;17.30;99.90;;;;;;5109464;28;20916;-58
2022/05/21 01:09:18;;;;;;;5.70;5.17;;;17.20;99.90;;;;;;5108503;27;20534;-58
2022/05/21 01:11:44;;;;;;;8.87;5.80;;;17.20;99.90;;;;;;5109575;28;20872;-58
2022/05/21 01:14:11;;;;;;;7.67;5.20;;;17.20;99.90;;;;;;5109610;28;20197;-58
2022/05/21 01:16:37;;;;;;;8.10;5.43;;;17.10;99.90;;;;;;5109558;27;20243;-58
2022/05/21 01:19:08;;;;;;;7.50;5.60;;;17.00;99.90;;;;;;5107267;28;20423;-59
2022/05/21 01:21:36;;;;;;;5.77;5.17;;;17.00;99.90;;;;;;5108691;28;20443;-57
2022/05/21 01:24:03;;;;;;;5.70;4.80;;;16.90;99.90;;;;;;5108008;28;20458;-58
2022/05/21 01:26:29;;;;;;;9.43;4.57;;;16.80;99.90;;;;;;5112075;27;20427;-58
2022/05/21 01:28:56;;;;;;;6.63;4.40;;;16.80;99.90;;;;;;5089870;28;20443;-58
2022/05/21 01:31:21;;;;;;;4.93;4.40;;;16.80;99.90;;;;;;5114714;27;20429;-57
2022/05/21 01:33:47;;;;;;;10.40;4.80;;;16.70;99.90;;;;;;5109184;27;20450;-59
2022/05/21 01:36:14;;;;;;;5.17;4.67;;;16.70;99.90;;;;;;5112464;27;20777;-58
2022/05/21 01:38:41;;;;;;;6.60;4.20;;;16.70;99.90;;;;;;5108616;27;20177;-59
2022/05/21 01:41:09;;;;;;;7.47;4.60;;;16.60;99.90;;;;;;5104025;27;20435;-60
2022/05/21 01:46:20;;;;;;;6.53;4.10;;;16.60;99.90;;;;;;5102638;28;20438;-58
2022/05/21 01:48:46;;;;;;;7.20;5.50;;;16.50;99.90;;;;;;5106726;28;20435;-59
2022/05/21 01:51:12;;;;;;;5.53;4.40;;;16.40;99.90;;;;;;5108727;28;20292;-56
2022/05/21 01:53:39;;;;;;;7.63;4.93;;;16.40;99.90;;;;;;5108709;28;20859;-59
2022/05/21 01:56:06;;;;;;;7.00;4.60;;;16.40;99.90;;;;;;5112847;27;20427;-59
2022/05/21 01:58:32;;;;;;;6.87;4.83;;;16.40;99.90;;;;;;5103149;27;20434;-58
2022/05/21 02:00:58;;;;;;;7.43;5.00;;;16.30;99.90;;;;;;5106473;28;20449;-58
2022/05/21 02:03:24;;;;;;;6.13;4.17;;;16.30;99.90;;;;;;5106566;28;20447;-58
2022/05/21 02:05:50;;;;;;;6.93;4.27;;;16.30;99.90;;;;;;5107681;27;20730;-59
2022/05/21 02:08:17;;;;;;;6.50;4.40;;;16.20;99.90;;;;;;5111772;27;20546;-58
2022/05/21 02:10:43;;;;;;;5.07;4.57;;;16.20;99.90;;;;;;5113138;27;20461;-58
2022/05/21 02:13:16;;;;;;;5.43;4.63;;;16.10;99.90;;;;;;5106013;28;20454;-58
2022/05/21 02:15:42;;;;;;;6.20;4.50;;;16.10;99.90;;;;;;5103958;28;20256;-58
2022/05/21 02:18:08;;;;;;;6.17;5.27;;;16.00;99.90;;;;;;5110503;27;20575;-60
2022/05/21 02:20:33;;;;;;;4.93;4.43;;;16.00;99.90;;;;;;5107782;28;20185;-58
2022/05/21 02:22:59;;;;;;;8.80;5.10;;;16.00;99.90;;;;;;5109375;28;20696;-58
2022/05/21 02:25:24;;;;;;;6.70;5.10;;;16.00;99.90;;;;;;5108946;27;20192;-58
2022/05/21 02:27:50;;;;;;;6.90;4.70;;;16.00;99.90;;;;;;5108492;28;20181;-60
2022/05/21 02:30:16;;;;;;;7.93;5.03;;;16.00;99.90;;;;;;5089101;28;20196;-59
2022/05/21 02:32:41;;;;;;;5.70;4.93;;;16.00;99.90;;;;;;5108736;28;20307;-58
2022/05/21 02:35:07;;;;;;;5.83;4.70;;;15.90;99.90;;;;;;5107651;28;20516;-58
2022/05/21 02:40:17;;;;;;;6.13;5.23;;;15.90;99.90;;;;;;5106220;28;20450;-58
2022/05/21 02:42:43;;;;;;;8.10;4.57;;;15.90;99.90;;;;;;5114818;27;20459;-60
2022/05/21 02:45:14;;;;;;;9.47;6.80;;;15.80;99.90;;;;;;5102673;28;20173;-58
2022/05/21 02:47:41;;;;;;;9.23;4.77;;;15.80;99.90;;;;;;5110113;27;20192;-59
2022/05/21 02:50:10;;;;;;;6.73;4.93;;;15.80;99.90;;;;;;5106020;27;20458;-57
2022/05/21 02:52:36;;;;;;;10.17;5.67;;;15.70;99.90;;;;;;5108467;27;20896;-58
2022/05/21 02:55:03;;;;;;;7.97;5.47;;;15.70;99.90;;;;;;5106979;28;20431;-58
2022/05/21 02:57:29;;;;;;;6.60;5.63;;;15.70;99.90;;;;;;5105623;28;20437;-58
2022/05/21 02:59:54;;;;;;;6.90;5.60;;;15.70;99.90;;;;;;5114293;27;21099;-57
2022/05/21 03:02:20;;;;;;;6.90;4.90;;;15.70;99.90;;;;;;5108721;28;20187;-59
2022/05/21 03:04:46;;;;;;;9.23;5.13;;;15.70;99.90;;;;;;5109683;28;20200;-58
2022/05/21 03:07:12;;;;;;;7.87;5.07;;;15.60;99.90;;;;;;5108865;28;20185;-59
2022/05/21 03:12:22;;;;;;;10.17;5.10;;;15.50;99.90;;;;;;5103138;28;20253;-57
2022/05/21 03:14:48;;;;;;;5.50;4.30;;;15.50;99.90;;;;;;5096055;28;20826;-59
2022/05/21 03:17:13;;;;;;;5.60;4.03;;;15.40;99.90;;;;;;5105668;28;20176;-58
2022/05/21 03:19:39;;;;;;;6.10;3.57;;;15.40;99.90;;;;;;5106756;28;20185;-58
2022/05/21 03:22:05;;;;;;;7.97;4.00;;;15.30;99.90;;;;;;5110571;28;20220;-58
2022/05/21 03:24:31;;;;;;;6.40;3.73;;;15.30;99.90;;;;;;5097581;28;20228;-58
2022/05/21 03:26:57;;;;;;;5.47;3.53;;;15.20;99.90;;;;;;5107656;28;20547;-60
2022/05/21 03:29:23;;;;;;;5.30;3.83;;;15.20;99.90;;;;;;5088977;28;20712;-58
2022/05/21 03:31:49;;;;;;;3.90;3.37;;;15.20;99.90;;;;;;5106537;28;20442;-60
2022/05/21 03:34:15;;;;;;;7.03;3.40;;;15.10;99.90;;;;;;5107540;28;20443;-64
2022/05/21 03:36:40;;;;;;;7.77;4.13;;;15.10;99.90;;;;;;5108264;28;20181;-58
2022/05/21 03:39:06;;;;;;;8.77;4.50;;;15.10;99.90;;;;;;5108525;28;20176;-59
2022/05/21 03:41:32;;;;;;;7.90;4.00;;;15.10;99.90;;;;;;5105510;28;20272;-58
2022/05/21 03:43:58;;;;;;;6.30;3.90;;;15.00;99.90;;;;;;5113167;28;20227;-58
2022/05/21 03:46:24;;;;;;;4.53;3.70;;;15.00;99.90;;;;;;5105609;28;20173;-58
2022/05/21 03:48:50;;;;;;;9.20;4.00;;;15.00;99.90;;;;;;5108562;28;20422;-59
2022/05/21 03:51:16;;;;;;;5.40;4.77;;;15.00;99.90;;;;;;5108461;28;20207;-60
2022/05/21 03:53:42;;;;;;;7.03;3.80;;;15.00;99.90;;;;;;5110805;28;20462;-59
2022/05/21 03:56:09;;;;;;;3.80;3.23;;;14.90;99.90;;;;;;5111488;28;20491;-58
2022/05/21 03:58:35;;;;;;;3.70;3.40;;;14.90;99.90;;;;;;5088487;28;20185;-58
2022/05/21 04:01:00;;;;;;;8.63;3.30;;;14.90;99.90;;;;;;5114112;27;20491;-59
2022/05/21 04:03:26;;;;;;;3.93;3.40;;;14.90;99.90;;;;;;5110119;27;20462;-59
2022/05/21 04:05:56;;;;;;;4.40;4.00;;;14.80;99.90;;;;;;5111450;28;20207;-56
2022/05/21 04:08:22;;;;;;;5.73;3.67;;;14.80;99.90;;;;;;5112285;27;20184;-58
2022/05/21 04:10:48;;;;;;;5.27;4.27;;;14.80;99.90;;;;;;5107797;27;20466;-57
2022/05/21 04:13:15;;;;;;;4.10;3.80;;;14.80;99.90;;;;;;5090065;28;20450;-57
2022/05/21 04:15:40;;;;;;;6.17;4.23;;;14.70;99.90;;;;;;5100605;28;20180;-58
2022/05/21 04:18:06;;;;;;;6.77;4.17;;;14.70;99.90;;;;;;5106952;27;20423;-57
2022/05/21 04:20:32;;;;;;;8.27;3.83;;;14.70;99.90;;;;;;5087086;28;20288;-58
2022/05/21 04:22:57;;;;;;;5.47;4.07;;;14.70;99.90;;;;;;5109754;28;20197;-59
2022/05/21 04:25:24;;;;;;;5.90;3.87;;;14.70;99.90;;;;;;5109686;28;20177;-58
2022/05/21 04:27:50;;;;;;;4.90;4.17;;;14.70;99.90;;;;;;5112948;27;20256;-58
2022/05/21 04:30:28;;;;;;;5.00;3.93;;;14.70;99.90;;;;;;5107758;28;20462;-58
2022/05/21 04:32:54;;;;;;;4.83;4.00;;;14.70;99.90;;;;;;5105309;27;20486;-59
2022/05/21 04:35:21;;;;;;;6.00;4.43;;;14.70;99.90;;;;;;5107949;28;20475;-59
2022/05/21 04:37:47;;;;;;;6.43;4.77;;;14.70;99.90;;;;;;5109220;28;20459;-58
2022/05/21 04:40:17;;;;;;;6.57;4.97;;;14.70;99.90;;;;;;5109277;28;20803;-58
2022/05/21 04:42:42;;;;;;;6.27;4.20;;;14.80;99.90;;;;;;5092918;28;20439;-58
2022/05/21 04:45:09;;;;;;;4.73;4.30;;;14.80;99.90;;;;;;5109498;28;20433;-59
2022/05/21 04:47:35;;;;;;;7.17;4.50;;;14.80;99.90;;;;;;5113570;27;20321;-58
2022/05/21 04:50:02;;;;;;;5.93;4.37;;;14.80;99.90;;;;;;5109286;27;20568;-58
2022/05/21 04:52:28;;;;;;;6.73;4.97;;;14.90;99.90;;;;;;5108777;28;20507;-58
2022/05/21 04:54:53;;;;;;;5.33;4.50;;;14.90;99.90;;;;;;5090770;28;21144;-58
2022/05/21 04:57:19;;;;;;;6.27;4.40;;;15.00;99.90;;;;;;5097973;28;20173;-57
2022/05/21 04:59:46;;;;;;;5.90;4.17;;;15.10;99.90;;;;;;5110210;28;20434;-58
2022/05/21 05:02:12;;;;;;;7.70;4.47;;;15.20;99.90;;;;;;5109101;28;20181;-58
2022/05/21 05:04:37;;;;;;;4.33;3.93;;;15.20;99.90;;;;;;5089329;28;20434;-58
2022/05/21 05:07:08;;;;;;;7.43;4.00;;;15.20;99.90;;;;;;5099639;28;20521;-58
2022/05/21 05:09:41;;;;;;;4.93;3.67;;;15.20;99.90;;;;;;5109460;27;20701;-58
2022/05/21 05:12:08;;;;;;;6.30;4.10;;;15.30;99.90;;;;;;5107462;27;20456;-58
2022/05/21 05:14:33;;;;;;;4.20;3.80;;;15.30;99.90;;;;;;5100699;28;20811;-59
2022/05/21 05:16:59;;;;;;;9.13;4.20;;;15.30;99.90;;;;;;5092462;27;20427;-57
2022/05/21 05:19:25;;;;;;;6.10;3.83;;;15.40;99.90;;;;;;5109944;27;20604;-58
2022/05/21 05:21:50;;;;;;;3.80;3.40;;;15.40;99.90;;;;;;5106986;28;20211;-58
2022/05/21 05:24:16;;;;;;;5.43;3.83;;;15.40;99.90;;;;;;5103906;27;20230;-57
2022/05/21 05:26:42;;;;;;;10.23;4.33;;;15.40;99.90;;;;;;5110637;27;20264;-58
2022/05/21 05:29:09;;;;;;;13.03;3.50;;;15.50;99.90;;;;;;5115002;27;20193;-57
2022/05/21 05:31:35;;;;;;;7.07;3.33;;;15.50;99.90;;;;;;5109411;28;20162;-58
2022/05/21 05:34:01;;;;;;;5.57;3.53;;;15.50;99.90;;;;;;5110917;27;20453;-58
2022/05/21 05:36:28;;;;;;;3.90;3.60;;;15.50;99.90;;;;;;5090072;28;20183;-59
2022/05/21 05:38:54;;;;;;;8.43;3.40;;;15.50;99.90;;;;;;5104188;28;20165;-58
2022/05/21 05:41:20;;;;;;;3.73;3.33;;;15.60;99.90;;;;;;5098368;28;20543;-58
2022/05/21 05:43:45;;;;;;;4.93;3.63;;;15.60;99.90;;;;;;5110667;27;20305;-59
2022/05/21 05:46:11;;;;;;;5.23;3.40;;;15.70;99.90;;;;;;5109420;28;20184;-58
2022/05/21 05:48:36;;;;;;;5.90;3.93;;;15.80;99.90;;;;;;5111522;27;20267;-59
2022/05/21 05:51:04;;;;;;;3.40;3.07;;;15.90;99.90;;;;;;5085934;28;20689;-58
2022/05/21 05:53:29;;;;;;;3.73;3.43;;;15.90;99.90;;;;;;5103913;27;20185;-59
2022/05/21 05:55:55;;;;;;;5.93;3.40;;;16.00;98.50;;;;;;5105191;28;20445;-59
2022/05/21 06:01:07;;;;;;;5.37;3.23;;;15.90;92.80;;;;;;5104377;28;20238;-58
2022/05/21 06:03:34;;;;;;;7.93;3.23;;;15.90;92.00;;;;;;5112408;27;20515;-58
2022/05/21 06:06:00;;;;;;;5.50;3.07;;;15.90;90.80;;;;;;5103706;28;20480;-59
2022/05/21 06:08:26;;;;;;;8.10;3.20;;;15.90;90.00;;;;;;5110138;28;20434;-59
2022/05/21 06:10:52;;;;;;;2.83;2.63;;;15.80;91.10;;;;;;5112424;27;20880;-58
2022/05/21 06:13:18;;;;;;;3.83;3.07;;;15.90;91.10;;;;;;5109749;27;20431;-59
2022/05/21 06:15:43;;;;;;;3.77;2.97;;;15.90;86.20;;;;;;5107877;27;20173;-58
2022/05/21 06:18:12;;;;;;;3.33;3.03;;;15.90;84.80;;;;;;5109496;27;20161;-58
2022/05/21 06:20:39;;;;;;;3.30;2.90;;;15.90;84.30;;;;;;5107844;28;20177;-60
2022/05/21 06:23:05;;;;;;;4.33;3.00;;;15.90;92.20;;;;;;5108610;28;20439;-57
2022/05/21 06:25:33;;;;;;;3.83;3.00;;;16.00;91.80;;;;;;5103430;27;20427;-58
2022/05/21 06:27:59;;;;;;;4.97;3.50;;;16.10;91.20;;;;;;5105935;28;20174;-58
2022/05/21 06:30:26;;;;;;;3.77;3.37;;;16.20;88.80;;;;;;5107232;27;21389;-58
2022/05/21 06:32:53;;;;;;;4.87;3.80;;;16.10;84.20;;;;;;5108444;27;20471;-63
2022/05/21 06:35:19;;;;;;;3.83;3.40;;;16.10;83.90;;;;;;5103011;28;20427;-58
2022/05/21 06:37:46;;;;;;;3.07;2.77;;;16.20;88.80;;;;;;5107598;28;20419;-58
2022/05/21 06:40:13;;;;;;;4.00;3.57;;;16.30;85.60;;;;;;5097238;27;20450;-57
2022/05/21 06:42:40;;;;;;;4.00;3.47;;;16.30;85.30;;;;;;5104283;27;20503;-59
2022/05/21 06:45:07;;;;;;;3.80;3.50;;;16.40;83.20;;;;;;5087222;28;20950;-59
2022/05/21 06:47:33;;;;;;;4.10;2.90;;;16.40;81.30;;;;;;5104545;27;20439;-58
2022/05/21 06:49:59;;;;;;;4.67;2.90;;;16.40;85.10;;;;;;5097749;28;20451;-60
2022/05/21 06:52:27;;;;;;;2.70;2.50;;;16.50;84.30;;;;;;5099007;28;20177;-57
2022/05/21 06:54:54;;;;;;;3.60;2.70;;;16.50;76.10;;;;;;5105797;28;20422;-59
2022/05/21 06:57:21;;;;;;;9.60;2.97;;;16.60;76.30;;;;;;5087795;28;20529;-59
2022/05/21 06:59:47;;;;;;;4.23;2.47;;;16.50;67.60;;;;;;5104785;28;20433;-55
2022/05/21 07:02:13;;;;;;;1.80;1.70;;;16.60;69.70;;;;;;5092101;28;20426;-56
2022/05/21 07:07:32;;;;;;;2.50;2.30;;;16.70;68.30;;;;;;5105109;28;20192;-57
2022/05/21 07:10:00;;;;;;;2.20;2.00;;;16.80;67.60;;;;;;5104395;28;20458;-57
2022/05/21 07:12:25;;;;;;;3.60;2.60;;;16.90;65.50;;;;;;5101572;28;20426;-58
2022/05/21 07:14:51;;;;;;;3.83;2.50;;;16.90;64.30;;;;;;5102293;28;20484;-57
2022/05/21 07:17:17;;;;;;;4.50;2.33;;;16.90;64.50;;;;;;5105384;28;20169;-64
2022/05/21 07:19:43;;;;;;;3.47;2.10;;;16.90;63.40;;;;;;5074330;28;20268;-57
2022/05/21 07:22:09;;;;;;;5.20;2.17;;;16.90;64.10;;;;;;5098012;28;20192;-56
2022/05/21 07:24:39;;;;;;;3.33;2.20;;;16.90;63.50;;;;;;5098147;28;20207;-56
2022/05/21 07:27:04;;;;;;;2.13;2.03;;;16.90;64.30;;;;;;5106246;27;20954;-57
2022/05/21 07:29:30;;;;;;;2.37;2.17;;;17.00;63.00;;;;;;5104025;27;20459;-58
2022/05/21 07:31:56;;;;;;;2.67;2.20;;;17.00;63.60;;;;;;5107664;28;20264;-54
2022/05/21 07:34:22;;;;;;;3.13;2.10;;;17.00;62.90;;;;;;5106666;28;20193;-56
2022/05/21 07:36:48;;;;;;;3.07;2.20;;;17.10;63.60;;;;;;5106884;27;20181;-54
2022/05/21 07:39:14;;;;;;;2.03;1.93;;;17.30;64.70;;;;;;5104967;28;20423;-56
2022/05/21 07:41:41;;;;;;;2.40;2.20;;;17.40;64.80;;;;;;5090112;28;20185;-55
2022/05/21 07:44:07;;;;;;;1.90;1.80;;;17.50;62.90;;;;;;5105741;27;21104;-54
2022/05/21 07:46:33;;;;;;;2.40;2.00;;;17.50;60.40;;;;;;5107011;27;20477;-53
2022/05/21 07:48:59;;;;;;;3.20;2.27;;;17.50;59.30;;;;;;5097757;28;21833;-58
2022/05/21 07:51:24;;;;;;;6.63;1.90;;;17.50;58.90;;;;;;5106313;27;20205;-59
2022/05/21 07:53:50;;;;;;;2.30;2.03;;;17.50;59.60;;;;;;5104802;27;20197;-58
2022/05/21 07:56:15;;;;;;;2.77;2.20;;;17.50;57.90;;;;;;5086046;28;20831;-58
2022/05/21 07:58:42;;;;;;;2.43;2.03;;;17.40;57.60;;;;;;5103235;27;20192;-58
2022/05/21 08:01:10;;;;;;;2.10;1.90;;;17.50;58.50;;;;;;5110212;27;20189;-56
2022/05/21 08:03:36;;;;;;;2.57;2.10;;;17.50;56.90;;;;;;5106926;27;20457;-58
2022/05/21 08:06:02;;;;;;;6.53;1.87;;;17.60;57.20;;;;;;5101780;27;20435;-59
2022/05/21 08:08:27;;;;;;;1.90;1.80;;;17.60;58.30;;;;;;5109020;27;20190;-59
2022/05/21 08:10:53;;;;;;;3.37;2.17;;;17.70;57.80;;;;;;5104137;27;20458;-57
2022/05/21 08:13:19;;;;;;;2.50;2.30;;;17.80;58.20;;;;;;5106226;27;20219;-58
2022/05/21 08:15:44;;;;;;;4.20;2.00;;;17.80;57.90;;;;;;5097292;27;20173;-54
2022/05/21 08:18:11;;;;;;;2.10;1.93;;;17.90;57.60;;;;;;5101265;27;20358;-58
2022/05/21 08:20:38;;;;;;;5.20;2.23;;;17.90;57.80;;;;;;5100550;27;20184;-53
2022/05/21 08:28:34;;;;;;;4.80;2.57;;;18.00;58.20;;;;;;5093608;28;20422;-58
2022/05/21 08:31:00;;;;;;;1.93;1.83;;;18.10;57.50;;;;;;5103234;28;20459;-58
2022/05/21 08:33:27;;;;;;;2.33;2.13;;;18.10;57.60;;;;;;5109911;27;20434;-59
2022/05/21 08:35:52;;;;;;;6.40;2.10;;;18.10;58.40;;;;;;5102905;28;20434;-60
2022/05/21 08:38:19;;;;;;;2.30;2.10;;;18.30;59.40;;;;;;5101281;27;20443;-59
2022/05/21 08:41:21;;;;;;;8.00;2.40;;;18.50;58.90;;;;;;5102718;28;20177;-57
2022/05/21 08:44:06;;;;;;;2.10;2.00;;;18.50;57.00;;;;;;5054935;28;20823;-59
2022/05/21 08:46:53;;;;;;;4.33;2.10;;;18.60;57.10;;;;;;5106174;27;20423;-58
2022/05/21 08:49:35;;;;;;;2.57;2.37;;;18.70;58.00;;;;;;5108375;27;20425;-58
2022/05/21 08:52:14;;;;;;;4.53;2.30;;;18.80;56.50;;;;;;5104160;27;20506;-59
2022/05/21 08:54:45;;;;;;;2.13;1.97;;;18.90;56.10;;;;;;5097719;27;20503;-60
2022/05/21 08:57:16;;;;;;;2.30;2.00;;;18.90;56.50;;;;;;5102910;28;20821;-60
2022/05/21 08:59:49;;;;;;;2.43;2.17;;;19.00;57.80;;;;;;5100537;28;20427;-61
2022/05/21 09:02:18;;;;;;;4.63;2.33;;;19.10;57.90;;;;;;5097068;27;20427;-60
2022/05/21 09:04:44;;;;;;;3.53;2.23;;;19.30;58.20;;;;;;5102307;28;20525;-60
2022/05/21 09:07:20;;;;;;;2.60;1.57;;;19.30;55.70;;;;;;5103794;28;20575;-60
2022/05/21 09:10:02;;;;;;;3.20;2.00;;;19.30;55.20;;;;;;5098903;27;20661;-60
2022/05/21 09:12:55;;;;;;;3.63;2.07;;;19.30;54.60;;;;;;5103479;27;20414;-62
2022/05/21 09:18:08;;;;;;;3.30;2.13;;;19.50;56.70;;;;;;5103387;28;20472;-61
2022/05/21 09:20:41;;;;;;;4.00;1.80;;;19.60;54.40;;;;;;5102499;28;20446;-62
2022/05/21 09:23:08;;;;;;;2.60;2.07;;;19.70;55.00;;;;;;5102604;27;20197;-61
2022/05/21 09:25:33;;;;;;;3.20;1.87;;;19.80;55.00;;;;;;5099354;27;20537;-60
2022/05/21 09:28:06;;;;;;;2.03;1.80;;;19.90;54.00;;;;;;5102756;27;21019;-59
2022/05/21 09:30:37;;;;;;;1.97;1.87;;;20.00;53.50;;;;;;5105928;27;20213;-60
2022/05/21 09:33:32;;;;;;;7.17;1.97;;;20.20;54.00;;;;;;5097779;28;20455;-61
2022/05/21 09:35:59;;;;;;;2.20;1.90;;;20.30;55.40;;;;;;5099967;27;20457;-59
2022/05/21 09:38:28;;;;;;;1.83;1.73;;;20.60;55.90;;;;;;5097671;27;20427;-60
2022/05/21 09:41:27;;;;;;;2.10;1.90;;;20.70;55.10;;;;;;5098503;27;20757;-60
2022/05/21 09:46:38;;;;;;;5.07;1.87;;;20.80;53.00;;;;;;5095233;28;20418;-59
2022/05/21 09:49:26;;;;;;;7.30;1.77;;;21.00;54.50;;;;;;5100163;27;20907;-59
2022/05/21 09:51:56;;;;;;;3.23;1.70;;;21.20;54.90;;;;;;5104509;27;20423;-59
2022/05/21 09:54:37;;;;;;;1.60;1.47;;;21.40;54.80;;;;;;5102028;27;20825;-60
2022/05/21 09:57:04;;;;;;;1.30;1.20;;;21.50;55.10;;;;;;5103642;27;21052;-59
2022/05/21 09:59:32;;;;;;;1.70;1.60;;;21.60;53.20;;;;;;5101525;27;20450;-59
2022/05/21 10:02:15;;;;;;;2.40;1.40;;;21.70;53.40;;;;;;5103073;28;20427;-58
2022/05/21 10:04:51;;;;;;;1.80;1.47;;;21.80;52.90;;;;;;5094370;28;21144;-57
2022/05/21 10:11:00;;;;;;;1.43;1.30;;;22.10;52.70;;;;;;5094343;27;20568;-58
2022/05/21 10:13:44;;;;;;;3.03;1.43;;;22.20;51.00;;;;;;5103091;27;20443;-58
2022/05/21 10:16:34;;;;;;;1.43;1.33;;;22.40;52.40;;;;;;5080303;27;20431;-59
2022/05/21 10:19:07;;;;;;;1.43;1.33;;;22.60;52.10;;;;;;5102514;27;20426;-59
2022/05/21 10:21:56;;;;;;;4.23;1.23;;;22.60;50.60;;;;;;5102577;27;20520;-58
2022/05/21 10:24:43;;;;;;;3.40;1.50;;;22.70;51.30;;;;;;5101111;27;20451;-60
2022/05/21 10:27:43;;;;;;;1.40;1.30;;;22.80;51.70;;;;;;5100967;28;20431;-55
2022/05/21 10:30:26;;;;;;;1.43;1.33;;;22.90;50.90;;;;;;5097685;28;20519;-56
2022/05/21 10:33:02;;;;;;;1.13;1.03;;;23.00;50.70;;;;;;5101190;27;20454;-56
2022/05/21 10:35:40;;;;;;;2.00;1.47;;;23.10;51.00;;;;;;5087922;28;20434;-58
2022/05/21 10:38:21;;;;;;;3.97;2.07;;;23.30;50.20;;;;;;5092285;28;20970;-55
2022/05/21 10:41:23;;;;;;;3.03;1.30;;;23.40;50.10;;;;;;5097552;28;20459;-57
2022/05/21 10:43:55;;;;;;;2.73;1.30;;;23.60;49.00;;;;;;5102968;28;20448;-58
2022/05/21 10:46:52;;;;;;;1.63;1.10;;;23.70;48.50;;;;;;5102940;28;20437;-57
2022/05/21 10:49:29;;;;;;;1.70;1.10;;;23.70;49.50;;;;;;5101141;28;20423;-56
2022/05/21 10:52:24;;;;;;;2.50;1.20;;;23.80;49.10;;;;;;5100394;27;20418;-58
2022/05/21 10:55:09;;;;;;;3.27;1.00;;;23.90;48.20;;;;;;5090784;28;20423;-60
2022/05/21 10:58:05;;;;;;;1.30;1.20;;;23.80;45.80;;;;;;5096571;28;20473;-59
2022/05/21 11:00:42;;;;;;;3.93;1.27;;;23.80;46.30;;;;;;5097564;28;21837;-59
2022/05/21 11:03:22;;;;;;;1.57;1.20;;;23.80;47.30;;;;;;5100013;28;20493;-59
2022/05/21 11:05:54;;;;;;;1.47;1.33;;;23.90;47.20;;;;;;5097435;28;20434;-59
2022/05/21 11:08:37;;;;;;;2.50;1.20;;;24.00;46.70;;;;;;5096912;28;20430;-61
2022/05/21 11:11:37;;;;;;;1.53;1.03;;;24.10;47.70;;;;;;5083249;28;21007;-59
2022/05/21 11:14:05;;;;;;;4.43;1.03;;;24.30;48.40;;;;;;5098302;28;20438;-60
2022/05/21 11:16:59;;;;;;;2.10;0.97;;;24.40;47.80;;;;;;5095732;28;20976;-60
2022/05/21 11:19:51;;;;;;;2.20;1.00;;;24.50;47.10;;;;;;5100416;28;21339;-59
2022/05/21 11:22:24;;;;;;;1.70;1.13;;;24.70;46.40;;;;;;5103086;28;20966;-60
2022/05/21 11:25:20;;;;;;;1.33;1.23;;;24.80;46.40;;;;;;5100165;28;20434;-59
2022/05/21 11:27:59;;;;;;;1.10;1.00;;;24.80;46.10;;;;;;5098575;28;20426;-59
2022/05/21 11:30:25;;;;;;;2.80;1.10;;;24.90;45.80;;;;;;5097342;28;20902;-60
2022/05/21 11:38:39;;;;;;;1.87;1.10;;;25.10;44.60;;;;;;5099152;28;20443;-59
2022/05/21 11:41:30;;;;;;;3.63;1.20;;;25.10;45.10;;;;;;5101893;28;20411;-59
2022/05/21 11:46:47;;;;;;;1.67;1.10;;;25.20;44.60;;;;;;5097996;28;20426;-59
2022/05/21 11:49:47;;;;;;;1.20;1.10;;;25.20;44.10;;;;;;5100715;28;20428;-58
2022/05/21 11:52:31;;;;;;;1.20;1.00;;;25.40;44.80;;;;;;5100034;28;20418;-59
2022/05/21 11:55:01;;;;;;;1.03;1.00;;;25.40;42.60;;;;;;5097069;28;20426;-59
2022/05/21 11:57:30;;;;;;;3.60;1.07;;;25.40;43.60;;;;;;5097567;28;20453;-59
2022/05/21 11:59:56;;;;;;;0.90;0.90;;;25.40;44.00;;;;;;5098590;28;20410;-59
2022/05/21 12:02:30;;;;;;;1.33;0.90;;;25.60;45.20;;;;;;5100254;28;20588;-59
2022/05/21 12:05:10;;;;;;;0.90;0.87;;;25.70;45.30;;;;;;5099693;28;20176;-58
2022/05/21 12:07:46;;;;;;;2.50;1.10;;;26.00;45.40;;;;;;5102174;28;20491;-59
2022/05/21 12:10:27;;;;;;;2.70;1.00;;;26.20;43.50;;;;;;5102937;28;20455;-59
2022/05/21 12:13:09;;;;;;;1.47;0.87;;;26.30;42.90;;;;;;5099205;28;20450;-59
2022/05/21 12:15:38;;;;;;;1.97;1.33;;;26.40;42.50;;;;;;5102303;27;20478;-59
2022/05/21 12:18:07;;;;;;;1.33;1.10;;;26.40;42.20;;;;;;5105960;27;20422;-60
2022/05/21 12:21:00;;;;;;;4.47;0.97;;;26.50;41.30;;;;;;5104583;27;20430;-60
2022/05/21 12:23:32;;;;;;;0.80;0.80;;;26.60;42.50;;;;;;5099339;28;20989;-60
2022/05/21 12:26:18;;;;;;;1.30;1.10;;;26.70;42.80;;;;;;5099605;28;20454;-60
2022/05/21 12:28:55;;;;;;;4.07;1.20;;;26.80;42.00;;;;;;5104430;27;20504;-60
2022/05/21 12:31:31;;;;;;;1.20;1.10;;;26.80;40.20;;;;;;5105823;27;20442;-59
2022/05/21 12:34:22;;;;;;;1.37;1.00;;;26.80;39.30;;;;;;5100997;28;20442;-58
2022/05/21 12:37:13;;;;;;;2.80;1.13;;;26.70;39.20;;;;;;5103103;27;20482;-59
2022/05/21 12:39:50;;;;;;;1.93;1.10;;;26.50;38.40;;;;;;5103596;28;20425;-59
2022/05/21 12:42:43;;;;;;;2.83;0.90;;;26.50;39.00;;;;;;5103428;27;20421;-60
2022/05/21 12:45:14;;;;;;;1.43;1.13;;;26.50;37.10;;;;;;5085842;28;20950;-59
2022/05/21 12:47:45;;;;;;;1.00;0.80;;;26.50;37.40;;;;;;5075643;28;20434;-61
2022/05/21 12:50:18;;;;;;;6.10;1.00;;;26.40;36.80;;;;;;5083855;28;20473;-57
2022/05/21 12:52:49;;;;;;;1.87;1.43;;;26.30;37.40;;;;;;5104340;28;20454;-59
2022/05/21 12:55:28;;;;;;;1.53;1.30;;;26.10;37.30;;;;;;5093831;28;20430;-59
2022/05/21 12:58:08;;;;;;;1.60;1.00;;;25.90;38.40;;;;;;5103158;28;20410;-60
2022/05/21 13:00:35;;;;;;;5.00;0.90;;;25.90;37.90;;;;;;5100963;27;20476;-59
2022/05/21 13:03:10;;;;;;;1.37;0.80;;;25.80;36.60;;;;;;5101112;27;20803;-58
2022/05/21 13:05:45;;;;;;;1.87;0.90;;;25.70;36.00;;;;;;5097450;28;20433;-60
2022/05/21 13:08:12;;;;;;;1.37;1.10;;;25.50;36.10;;;;;;5102194;28;20903;-58
2022/05/21 13:10:41;;;;;;;0.90;0.90;;;25.30;36.30;;;;;;5105038;27;20534;-59
2022/05/21 13:13:13;;;;;;;1.53;0.90;;;25.10;35.90;;;;;;5109194;27;20441;-60
2022/05/21 13:15:41;;;;;;;0.97;0.97;;;25.10;37.10;;;;;;5093603;27;20462;-58
2022/05/21 13:18:33;;;;;;;0.80;0.80;;;25.20;37.00;;;;;;5105144;27;20423;-59
2022/05/21 13:21:32;;;;;;;0.97;0.83;;;25.40;37.10;;;;;;5102906;27;20476;-59
2022/05/21 13:24:26;;;;;;;0.70;0.70;;;25.60;38.30;;;;;;5102961;27;20456;-59
2022/05/21 13:27:18;;;;;;;2.50;1.20;;;26.00;38.20;;;;;;5102591;27;20427;-58
2022/05/21 13:29:45;;;;;;;1.67;0.83;;;26.20;38.30;;;;;;5099587;28;20501;-58
2022/05/21 13:32:24;;;;;;;4.20;1.23;;;26.30;37.80;;;;;;5100893;28;20430;-58
2022/05/21 13:34:51;;;;;;;1.00;0.90;;;26.30;38.40;;;;;;5101157;27;20428;-59
2022/05/21 13:37:18;;;;;;;1.80;0.80;;;26.60;39.70;;;;;;5101982;28;20436;-58
2022/05/21 13:40:18;;;;;;;1.03;0.93;;;26.90;38.20;;;;;;5105274;27;20434;-59
2022/05/21 13:42:47;;;;;;;3.07;1.00;;;27.20;37.00;;;;;;5100966;28;20451;-58